createdAt,value
2018-07-23T00:00:15.621Z,0
2018-07-23T00:01:30.561Z,0
2018-07-23T00:02:45.004Z,0
2018-07-23T00:03:59.439Z,0
2018-07-23T00:05:13.596Z,0
2018-07-23T00:06:27.869Z,0
2018-07-23T00:07:42.072Z,0
2018-07-23T00:08:55.982Z,0
2018-07-23T00:10:10.684Z,0
2018-07-23T00:11:25.167Z,0
2018-07-23T00:12:39.095Z,0
2018-07-23T00:13:52.989Z,0
2018-07-23T00:15:07.946Z,0
2018-07-23T00:16:21.899Z,0
2018-07-23T00:17:42.485Z,0
2018-07-23T00:18:57.161Z,0
2018-07-23T00:20:11.858Z,0
2018-07-23T00:21:26.311Z,0
2018-07-23T00:22:40.875Z,0
2018-07-23T00:23:55.063Z,0
2018-07-23T00:25:09.483Z,0
2018-07-23T00:26:24.167Z,0
2018-07-23T00:27:38.593Z,0
2018-07-23T00:28:52.782Z,0
2018-07-23T00:30:07.499Z,0
2018-07-23T00:31:21.135Z,0
2018-07-23T00:32:35.353Z,0
2018-07-23T00:33:49.752Z,0
2018-07-23T00:35:04.675Z,0
2018-07-23T00:36:18.867Z,0
2018-07-23T00:37:32.945Z,0
2018-07-23T00:38:46.902Z,0
2018-07-23T00:40:00.820Z,0
2018-07-23T00:41:14.738Z,0
2018-07-23T00:42:28.920Z,0
2018-07-23T00:43:43.498Z,0
2018-07-23T00:44:57.405Z,0
2018-07-23T00:46:11.847Z,0
2018-07-23T00:47:26.558Z,0
2018-07-23T00:48:41.487Z,0
2018-07-23T00:50:27.702Z,0
2018-07-23T00:51:42.357Z,0
2018-07-23T00:52:56.809Z,0
2018-07-23T00:54:11.333Z,0
2018-07-23T00:55:25.799Z,0
2018-07-23T00:56:40.195Z,0
2018-07-23T00:57:54.095Z,0
2018-07-23T00:59:08.814Z,0
2018-07-23T01:00:22.989Z,0
2018-07-23T01:01:37.876Z,0
2018-07-23T01:02:52.800Z,0
2018-07-23T01:04:06.977Z,0
2018-07-23T01:05:21.383Z,0
2018-07-23T01:06:35.561Z,0
2018-07-23T01:07:49.757Z,0
2018-07-23T01:09:04.575Z,0
2018-07-23T01:10:19.271Z,0
2018-07-23T01:11:34.201Z,0
2018-07-23T01:12:48.353Z,0
2018-07-23T01:14:02.765Z,0
2018-07-23T01:15:17.180Z,0
2018-07-23T01:16:31.602Z,0
2018-07-23T01:17:45.728Z,0
2018-07-23T01:19:00.685Z,0
2018-07-23T01:20:14.907Z,0
2018-07-23T01:21:29.835Z,0
2018-07-23T01:22:43.764Z,0
2018-07-23T01:23:58.184Z,0
2018-07-23T01:25:11.995Z,0
2018-07-23T01:26:26.446Z,0
2018-07-23T01:27:40.857Z,0
2018-07-23T01:28:54.803Z,0
2018-07-23T01:30:09.739Z,0
2018-07-23T01:31:24.495Z,0
2018-07-23T01:32:38.374Z,0
2018-07-23T01:33:53.280Z,0
2018-07-23T01:35:08.032Z,0
2018-07-23T01:36:22.424Z,0
2018-07-23T01:37:36.346Z,0
2018-07-23T01:38:50.723Z,0
2018-07-23T01:40:05.429Z,0
2018-07-23T01:41:20.101Z,0
2018-07-23T01:42:34.673Z,0
2018-07-23T01:43:49.332Z,0
2018-07-23T01:45:03.763Z,0
2018-07-23T01:46:18.742Z,0
2018-07-23T01:47:33.102Z,0
2018-07-23T01:48:47.491Z,0
2018-07-23T01:50:01.675Z,0
2018-07-23T01:51:16.490Z,0
2018-07-23T01:52:30.932Z,0
2018-07-23T01:53:45.330Z,0
2018-07-23T01:54:59.510Z,0
2018-07-23T01:56:13.927Z,0
2018-07-23T01:57:28.587Z,0
2018-07-23T01:58:42.777Z,0
2018-07-23T01:59:57.218Z,0
2018-07-23T02:01:12.140Z,0
2018-07-23T02:02:26.313Z,0
2018-07-23T02:03:39.982Z,0
2018-07-23T02:04:54.421Z,0
2018-07-23T02:06:08.838Z,0
2018-07-23T02:07:23.465Z,0
2018-07-23T02:08:38.374Z,0
2018-07-23T02:09:52.580Z,0
2018-07-23T02:11:06.561Z,0
2018-07-23T02:12:20.709Z,0
2018-07-23T02:13:35.653Z,0
2018-07-23T02:14:50.532Z,0
2018-07-23T02:16:04.965Z,0
2018-07-23T02:17:20.082Z,0
2018-07-23T02:18:34.752Z,0
2018-07-23T02:19:48.914Z,0
2018-07-23T02:21:03.395Z,0
2018-07-23T02:22:18.002Z,0
2018-07-23T02:23:32.653Z,0
2018-07-23T02:24:47.959Z,0
2018-07-23T02:26:02.680Z,0
2018-07-23T02:27:16.652Z,0
2018-07-23T02:28:31.086Z,0
2018-07-23T02:29:46.042Z,0
2018-07-23T02:31:00.219Z,0
2018-07-23T02:32:14.422Z,0
2018-07-23T02:33:29.130Z,0
2018-07-23T02:34:44.011Z,0
2018-07-23T02:35:58.184Z,0
2018-07-23T02:37:12.639Z,0
2018-07-23T02:38:26.824Z,0
2018-07-23T02:39:41.531Z,0
2018-07-23T02:40:56.449Z,0
2018-07-23T02:42:11.154Z,0
2018-07-23T02:43:26.137Z,0
2018-07-23T02:44:41.075Z,0
2018-07-23T02:45:55.494Z,0
2018-07-23T02:47:10.603Z,0
2018-07-23T02:48:25.044Z,0
2018-07-23T02:49:39.441Z,0
2018-07-23T02:50:53.590Z,0
2018-07-23T02:52:08.002Z,0
2018-07-23T02:53:22.656Z,0
2018-07-23T02:54:37.327Z,0
2018-07-23T02:55:51.759Z,0
2018-07-23T02:57:06.412Z,0
2018-07-23T02:58:20.700Z,0
2018-07-23T02:59:34.939Z,0
2018-07-23T03:00:49.609Z,0
2018-07-23T03:02:04.291Z,0
2018-07-23T03:03:18.784Z,0
2018-07-23T03:04:32.757Z,0
2018-07-23T03:05:47.411Z,0
2018-07-23T03:07:01.577Z,0
2018-07-23T03:08:15.760Z,0
2018-07-23T03:09:29.944Z,0
2018-07-23T03:10:44.614Z,0
2018-07-23T03:11:59.020Z,0
2018-07-23T03:13:13.909Z,0
2018-07-23T03:14:27.568Z,0
2018-07-23T03:15:41.749Z,0
2018-07-23T03:16:55.895Z,0
2018-07-23T03:18:10.814Z,0
2018-07-23T03:19:26.181Z,0
2018-07-23T03:20:40.830Z,0
2018-07-23T03:21:55.666Z,0
2018-07-23T03:23:09.967Z,0
2018-07-23T03:24:24.644Z,0
2018-07-23T03:25:38.877Z,0
2018-07-23T03:26:53.055Z,0
2018-07-23T03:28:07.594Z,0
2018-07-23T03:29:21.793Z,0
2018-07-23T03:30:36.239Z,0
2018-07-23T03:31:50.658Z,0
2018-07-23T03:33:04.599Z,0
2018-07-23T03:34:19.175Z,0
2018-07-23T03:35:33.650Z,0
2018-07-23T03:36:48.342Z,0
2018-07-23T03:38:02.784Z,0
2018-07-23T03:39:16.972Z,0
2018-07-23T03:40:31.649Z,0
2018-07-23T03:41:46.569Z,5
2018-07-23T03:43:01.000Z,5
2018-07-23T03:44:16.158Z,5
2018-07-23T03:45:30.623Z,5
2018-07-23T03:46:45.045Z,5
2018-07-23T03:47:58.965Z,5
2018-07-23T03:49:13.188Z,10
2018-07-23T03:50:27.718Z,10
2018-07-23T03:51:42.644Z,10
2018-07-23T03:52:57.073Z,10
2018-07-23T03:54:11.496Z,15
2018-07-23T03:55:26.103Z,15
2018-07-23T03:56:40.544Z,15
2018-07-23T03:57:54.961Z,20
2018-07-23T03:59:09.202Z,20
2018-07-23T04:00:23.890Z,20
2018-07-23T04:01:38.826Z,25
2018-07-23T04:02:53.275Z,25
2018-07-23T04:04:07.983Z,25
2018-07-23T04:05:22.622Z,30
2018-07-23T04:06:36.554Z,30
2018-07-23T04:07:51.234Z,30
2018-07-23T04:09:05.230Z,35
2018-07-23T04:11:21.129Z,35
2018-07-23T04:12:35.855Z,40
2018-07-23T04:13:50.260Z,45
2018-07-23T04:15:04.899Z,45
2018-07-23T04:16:19.326Z,50
2018-07-23T04:17:33.681Z,50
2018-07-23T04:18:48.526Z,50
2018-07-23T04:20:02.975Z,55
2018-07-23T04:21:17.681Z,55
2018-07-23T04:22:32.364Z,60
2018-07-23T04:23:46.326Z,65
2018-07-23T04:25:00.264Z,65
2018-07-23T04:26:14.689Z,70
2018-07-23T04:27:28.466Z,75
2018-07-23T04:28:42.673Z,75
2018-07-23T04:29:57.095Z,80
2018-07-23T04:31:11.305Z,80
2018-07-23T04:32:25.620Z,80
2018-07-23T04:33:39.788Z,80
2018-07-23T04:34:54.201Z,85
2018-07-23T04:36:09.112Z,85
2018-07-23T04:37:24.092Z,85
2018-07-23T04:38:38.535Z,85
2018-07-23T04:39:53.229Z,95
2018-07-23T04:41:07.913Z,100
2018-07-23T04:42:23.165Z,105
2018-07-23T04:43:37.559Z,110
2018-07-23T04:44:52.255Z,110
2018-07-23T04:46:06.644Z,120
2018-07-23T04:47:20.830Z,130
2018-07-23T04:48:35.016Z,135
2018-07-23T04:49:49.200Z,140
2018-07-23T04:51:03.368Z,145
2018-07-23T04:52:17.519Z,150
2018-07-23T04:53:32.212Z,155
2018-07-23T04:54:46.681Z,155
2018-07-23T04:56:01.342Z,160
2018-07-23T04:57:16.505Z,160
2018-07-23T04:58:30.945Z,170
2018-07-23T04:59:45.886Z,175
2018-07-23T05:01:00.566Z,175
2018-07-23T05:02:14.760Z,150
2018-07-23T05:03:28.445Z,130
2018-07-23T05:04:42.121Z,135
2018-07-23T05:05:56.291Z,145
2018-07-23T05:07:10.467Z,145
2018-07-23T05:08:24.693Z,140
2018-07-23T05:09:39.431Z,145
2018-07-23T05:10:54.299Z,140
2018-07-23T05:12:07.756Z,155
2018-07-23T05:13:22.549Z,155
2018-07-23T05:14:36.912Z,150
2018-07-23T05:15:51.352Z,165
2018-07-23T05:17:06.008Z,200
2018-07-23T05:18:20.401Z,225
2018-07-23T05:20:33.890Z,225
2018-07-23T05:21:48.351Z,230
2018-07-23T05:23:02.581Z,220
2018-07-23T05:24:16.780Z,205
2018-07-23T05:25:31.261Z,195
2018-07-23T05:26:45.447Z,225
2018-07-23T05:27:59.844Z,215
2018-07-23T05:29:14.920Z,160
2018-07-23T05:30:28.892Z,160
2018-07-23T05:31:43.947Z,165
2018-07-23T05:32:58.374Z,165
2018-07-23T05:34:12.845Z,170
2018-07-23T05:35:27.037Z,160
2018-07-23T05:36:41.192Z,155
2018-07-23T05:37:55.348Z,150
2018-07-23T05:39:09.561Z,145
2018-07-23T05:40:24.544Z,140
2018-07-23T05:41:38.573Z,140
2018-07-23T05:42:52.763Z,135
2018-07-23T05:44:07.461Z,135
2018-07-23T05:45:21.627Z,135
2018-07-23T05:46:35.958Z,140
2018-07-23T05:47:50.382Z,135
2018-07-23T05:49:05.317Z,135
2018-07-23T05:50:19.494Z,140
2018-07-23T05:51:34.009Z,140
2018-07-23T05:52:48.452Z,145
2018-07-23T05:54:02.379Z,140
2018-07-23T05:55:16.556Z,135
2018-07-23T05:56:30.887Z,135
2018-07-23T05:57:45.521Z,140
2018-07-23T05:59:00.703Z,145
2018-07-23T06:00:15.157Z,150
2018-07-23T06:01:29.827Z,150
2018-07-23T06:02:44.513Z,155
2018-07-23T06:03:58.703Z,160
2018-07-23T06:05:13.384Z,160
2018-07-23T06:06:27.538Z,160
2018-07-23T06:07:42.186Z,170
2018-07-23T06:08:57.135Z,170
2018-07-23T06:10:11.341Z,170
2018-07-23T06:11:25.290Z,180
2018-07-23T06:12:39.765Z,185
2018-07-23T06:13:54.506Z,195
2018-07-23T06:15:09.219Z,200
2018-07-23T06:16:23.638Z,210
2018-07-23T06:17:38.185Z,215
2018-07-23T06:18:59.137Z,220
2018-07-23T06:20:13.333Z,230
2018-07-23T06:21:27.511Z,245
2018-07-23T06:22:41.603Z,250
2018-07-23T06:23:56.564Z,255
2018-07-23T06:25:10.956Z,260
2018-07-23T06:26:25.364Z,265
2018-07-23T06:27:39.536Z,265
2018-07-23T06:28:53.464Z,265
2018-07-23T06:30:08.243Z,270
2018-07-23T06:31:22.916Z,270
2018-07-23T06:32:37.687Z,270
2018-07-23T06:33:52.133Z,270
2018-07-23T06:35:06.898Z,275
2018-07-23T06:36:21.585Z,280
2018-07-23T06:37:36.716Z,280
2018-07-23T06:38:50.732Z,285
2018-07-23T06:40:05.453Z,280
2018-07-23T06:41:20.446Z,275
2018-07-23T06:42:34.457Z,265
2018-07-23T06:43:49.431Z,265
2018-07-23T06:45:03.620Z,265
2018-07-23T06:46:18.089Z,270
2018-07-23T06:47:33.010Z,280
2018-07-23T06:48:47.207Z,280
2018-07-23T06:54:09.810Z,265
2018-07-23T06:55:24.853Z,260
2018-07-23T06:56:39.049Z,255
2018-07-23T06:57:53.247Z,245
2018-07-23T06:59:07.911Z,235
2018-07-23T07:00:22.138Z,220
2018-07-23T07:01:36.322Z,220
2018-07-23T07:02:51.010Z,215
2018-07-23T07:04:05.125Z,215
2018-07-23T07:05:19.564Z,220
2018-07-23T07:06:34.924Z,225
2018-07-23T07:07:49.304Z,230
2018-07-23T07:09:04.169Z,235
2018-07-23T07:10:18.374Z,240
2018-07-23T07:11:33.425Z,245
2018-07-23T07:12:48.379Z,255
2018-07-23T07:14:02.091Z,265
2018-07-23T07:15:16.810Z,270
2018-07-23T07:16:31.240Z,270
2018-07-23T07:17:45.673Z,265
2018-07-23T07:18:59.874Z,255
2018-07-23T07:20:14.318Z,260
2018-07-23T07:21:28.806Z,260
2018-07-23T07:22:42.734Z,265
2018-07-23T07:23:56.917Z,270
2018-07-23T07:25:11.531Z,270
2018-07-23T07:26:25.719Z,270
2018-07-23T07:27:40.409Z,275
2018-07-23T07:28:55.132Z,275
2018-07-23T07:30:09.986Z,280
2018-07-23T07:31:24.691Z,275
2018-07-23T07:32:39.846Z,280
2018-07-23T07:33:54.313Z,280
2018-07-23T07:35:08.905Z,280
2018-07-23T07:36:23.312Z,280
2018-07-23T07:37:38.064Z,280
2018-07-23T07:38:52.259Z,280
2018-07-23T07:40:06.750Z,275
2018-07-23T07:41:20.934Z,275
2018-07-23T07:42:34.854Z,275
2018-07-23T07:43:49.036Z,275
2018-07-23T07:45:03.844Z,275
2018-07-23T07:46:18.066Z,280
2018-07-23T07:47:32.552Z,275
2018-07-23T07:48:47.193Z,275
2018-07-23T07:50:02.534Z,275
2018-07-23T07:51:16.332Z,275
2018-07-23T07:52:30.048Z,275
2018-07-23T07:53:44.754Z,270
2018-07-23T07:54:58.702Z,270
2018-07-23T07:56:12.992Z,270
2018-07-23T07:57:27.696Z,270
2018-07-23T07:58:42.403Z,270
2018-07-23T07:59:56.539Z,270
2018-07-23T08:01:11.251Z,270
2018-07-23T08:02:25.907Z,270
2018-07-23T08:03:40.587Z,270
2018-07-23T08:04:55.016Z,270
2018-07-23T08:06:09.628Z,270
2018-07-23T08:07:23.809Z,270
2018-07-23T08:08:38.056Z,270
2018-07-23T08:09:52.502Z,270
2018-07-23T08:11:07.262Z,270
2018-07-23T08:12:21.944Z,270
2018-07-23T08:13:36.640Z,265
2018-07-23T08:14:51.343Z,265
2018-07-23T08:16:05.649Z,265
2018-07-23T08:17:20.357Z,265
2018-07-23T08:18:34.522Z,265
2018-07-23T08:19:48.934Z,260
2018-07-23T08:21:03.575Z,260
2018-07-23T08:22:18.028Z,260
2018-07-23T08:23:32.492Z,260
2018-07-23T08:24:46.978Z,260
2018-07-23T08:26:01.418Z,260
2018-07-23T08:27:16.430Z,260
2018-07-23T08:28:30.897Z,260
2018-07-23T08:29:45.670Z,260
2018-07-23T08:31:00.344Z,260
2018-07-23T08:32:15.528Z,260
2018-07-23T08:33:30.518Z,260
2018-07-23T08:34:44.214Z,260
2018-07-23T08:35:58.933Z,260
2018-07-23T08:37:14.099Z,260
2018-07-23T08:38:28.656Z,260
2018-07-23T08:39:43.260Z,255
2018-07-23T08:40:57.283Z,255
2018-07-23T08:42:12.125Z,255
2018-07-23T08:43:26.367Z,255
2018-07-23T08:44:40.549Z,255
2018-07-23T08:45:55.501Z,250
2018-07-23T08:47:10.244Z,250
2018-07-23T08:48:24.968Z,250
2018-07-23T08:49:39.882Z,250
2018-07-23T08:50:54.334Z,250
2018-07-23T08:52:09.003Z,250
2018-07-23T08:53:22.941Z,245
2018-07-23T08:54:37.629Z,245
2018-07-23T08:55:52.308Z,245
2018-07-23T08:57:07.053Z,245
2018-07-23T08:58:21.252Z,245
2018-07-23T08:59:35.899Z,240
2018-07-23T09:00:50.760Z,240
2018-07-23T09:02:05.709Z,240
2018-07-23T09:03:20.191Z,235
2018-07-23T09:04:34.124Z,235
2018-07-23T09:05:48.582Z,235
2018-07-23T09:07:03.278Z,235
2018-07-23T09:08:17.508Z,230
2018-07-23T09:09:31.840Z,230
2018-07-23T09:10:46.720Z,230
2018-07-23T09:12:00.695Z,225
2018-07-23T09:13:15.697Z,225
2018-07-23T09:14:30.195Z,225
2018-07-23T09:15:44.615Z,225
2018-07-23T09:16:59.055Z,225
2018-07-23T09:18:13.856Z,225
2018-07-23T09:19:28.583Z,225
2018-07-23T09:20:42.805Z,225
2018-07-23T09:21:57.283Z,225
2018-07-23T09:23:11.546Z,225
2018-07-23T09:24:25.744Z,225
2018-07-23T09:25:39.972Z,225
2018-07-23T09:26:54.396Z,225
2018-07-23T09:28:08.687Z,225
2018-07-23T09:29:23.377Z,225
2018-07-23T09:30:38.068Z,225
2018-07-23T09:31:52.271Z,225
2018-07-23T09:33:07.062Z,220
2018-07-23T09:34:21.783Z,220
2018-07-23T09:35:35.944Z,220
2018-07-23T09:36:49.894Z,220
2018-07-23T09:38:04.137Z,220
2018-07-23T09:39:18.391Z,220
2018-07-23T09:40:32.864Z,220
2018-07-23T09:41:47.035Z,215
2018-07-23T09:43:01.422Z,215
2018-07-23T09:44:15.759Z,220
2018-07-23T09:45:30.806Z,215
2018-07-23T09:46:45.048Z,215
2018-07-23T09:47:59.032Z,215
2018-07-23T09:49:14.021Z,220
2018-07-23T09:50:28.231Z,230
2018-07-23T09:51:42.918Z,235
2018-07-23T09:52:56.620Z,235
2018-07-23T09:54:11.436Z,235
2018-07-23T09:55:25.380Z,230
2018-07-23T09:56:39.832Z,225
2018-07-23T09:57:53.775Z,220
2018-07-23T09:59:07.812Z,220
2018-07-23T10:00:22.344Z,215
2018-07-23T10:01:36.796Z,215
2018-07-23T10:02:51.762Z,215
2018-07-23T10:04:06.791Z,220
2018-07-23T10:05:21.661Z,225
2018-07-23T10:06:35.897Z,220
2018-07-23T10:07:50.109Z,215
2018-07-23T10:09:04.336Z,215
2018-07-23T10:10:18.821Z,215
2018-07-23T10:11:33.276Z,215
2018-07-23T10:12:47.696Z,205
2018-07-23T10:14:02.164Z,210
2018-07-23T10:15:16.246Z,210
2018-07-23T10:16:31.001Z,210
2018-07-23T10:17:44.957Z,210
2018-07-23T10:18:59.722Z,210
2018-07-23T10:20:14.271Z,210
2018-07-23T10:21:28.512Z,210
2018-07-23T10:22:42.761Z,210
2018-07-23T10:23:57.357Z,200
2018-07-23T10:25:12.117Z,200
2018-07-23T10:26:26.825Z,200
2018-07-23T10:27:42.009Z,205
2018-07-23T10:28:57.026Z,215
2018-07-23T10:30:11.951Z,220
2018-07-23T10:31:25.873Z,225
2018-07-23T10:32:40.544Z,235
2018-07-23T10:33:55.250Z,230
2018-07-23T10:35:09.603Z,225
2018-07-23T10:36:24.209Z,225
2018-07-23T10:37:38.902Z,225
2018-07-23T10:38:53.291Z,220
2018-07-23T10:40:07.255Z,215
2018-07-23T10:41:22.024Z,210
2018-07-23T10:42:36.972Z,210
2018-07-23T10:43:50.951Z,210
2018-07-23T10:45:04.904Z,205
2018-07-23T10:46:19.693Z,205
2018-07-23T10:47:34.096Z,205
2018-07-23T10:48:48.810Z,210
2018-07-23T10:50:02.034Z,215
2018-07-23T10:51:16.360Z,215
2018-07-23T10:52:30.854Z,220
2018-07-23T10:53:44.856Z,225
2018-07-23T10:54:59.355Z,230
2018-07-23T10:56:14.282Z,240
2018-07-23T10:57:28.873Z,245
2018-07-23T10:58:43.340Z,245
2018-07-23T10:59:57.569Z,255
2018-07-23T11:01:12.209Z,260
2018-07-23T11:02:26.703Z,265
2018-07-23T11:03:41.142Z,270
2018-07-23T11:04:55.348Z,270
2018-07-23T11:06:09.522Z,270
2018-07-23T11:07:23.889Z,260
2018-07-23T11:08:37.977Z,260
2018-07-23T11:09:51.924Z,255
2018-07-23T11:11:06.139Z,255
2018-07-23T11:12:20.854Z,255
2018-07-23T11:13:35.345Z,240
2018-07-23T11:14:49.801Z,230
2018-07-23T11:16:04.013Z,220
2018-07-23T11:17:18.669Z,225
2018-07-23T11:18:33.153Z,235
2018-07-23T11:19:48.120Z,240
2018-07-23T11:21:02.573Z,235
2018-07-23T11:22:17.264Z,235
2018-07-23T11:23:31.253Z,235
2018-07-23T11:24:45.682Z,225
2018-07-23T11:25:59.296Z,220
2018-07-23T11:27:13.643Z,210
2018-07-23T11:28:28.114Z,205
2018-07-23T11:29:42.876Z,210
2018-07-23T11:30:56.847Z,205
2018-07-23T11:32:11.750Z,200
2018-07-23T11:33:25.999Z,195
2018-07-23T11:34:52.945Z,185
2018-07-23T11:36:07.698Z,180
2018-07-23T11:37:22.784Z,180
2018-07-23T11:38:37.005Z,180
2018-07-23T11:39:51.692Z,185
2018-07-23T11:41:05.950Z,190
2018-07-23T11:42:20.255Z,200
2018-07-23T11:43:34.442Z,205
2018-07-23T11:44:49.152Z,205
2018-07-23T11:46:03.389Z,190
2018-07-23T11:47:18.546Z,170
2018-07-23T11:48:32.724Z,170
2018-07-23T11:49:47.151Z,170
2018-07-23T11:51:01.980Z,175
2018-07-23T11:52:19.689Z,185
2018-07-23T11:53:34.969Z,180
2018-07-23T11:54:49.167Z,185
2018-07-23T11:56:03.651Z,190
2018-07-23T11:57:18.209Z,190
2018-07-23T11:58:32.908Z,190
2018-07-23T11:59:47.103Z,195
2018-07-23T12:01:02.059Z,205
2018-07-23T12:02:16.591Z,210
2018-07-23T12:03:31.990Z,215
2018-07-23T12:04:46.656Z,215
2018-07-23T12:06:00.843Z,220
2018-07-23T12:07:14.808Z,220
2018-07-23T12:08:29.291Z,225
2018-07-23T12:09:44.465Z,220
2018-07-23T12:10:59.177Z,225
2018-07-23T12:12:13.426Z,230
2018-07-23T12:13:28.259Z,235
2018-07-23T12:14:42.703Z,225
2018-07-23T12:15:57.145Z,225
2018-07-23T12:17:11.762Z,225
2018-07-23T12:18:26.274Z,220
2018-07-23T12:19:40.738Z,220
2018-07-23T12:20:55.233Z,220
2018-07-23T12:22:09.930Z,210
2018-07-23T12:23:24.121Z,205
2018-07-23T12:24:38.603Z,190
2018-07-23T12:25:52.333Z,180
2018-07-23T12:27:06.311Z,180
2018-07-23T12:28:21.426Z,180
2018-07-23T12:29:35.614Z,180
2018-07-23T12:30:50.586Z,175
2018-07-23T12:32:05.295Z,175
2018-07-23T12:33:19.767Z,175
2018-07-23T12:34:34.137Z,170
2018-07-23T12:35:48.626Z,165
2018-07-23T12:37:03.362Z,160
2018-07-23T12:38:18.092Z,160
2018-07-23T12:39:33.813Z,160
2018-07-23T12:40:48.369Z,160
2018-07-23T12:42:03.088Z,160
2018-07-23T12:43:17.834Z,155
2018-07-23T12:44:32.369Z,155
2018-07-23T12:45:46.572Z,155
2018-07-23T12:47:00.793Z,155
2018-07-23T12:48:15.049Z,155
2018-07-23T12:49:29.509Z,150
2018-07-23T12:50:43.955Z,155
2018-07-23T12:51:58.439Z,145
2018-07-23T12:53:13.407Z,140
2018-07-23T12:54:27.326Z,140
2018-07-23T12:55:42.273Z,140
2018-07-23T12:56:57.226Z,145
2018-07-23T12:58:11.990Z,140
2018-07-23T12:59:27.158Z,145
2018-07-23T13:00:41.857Z,150
2018-07-23T13:01:56.324Z,155
2018-07-23T13:03:11.231Z,155
2018-07-23T13:04:25.497Z,155
2018-07-23T13:05:40.463Z,145
2018-07-23T13:06:54.940Z,150
2018-07-23T13:08:09.852Z,155
2018-07-23T13:09:24.100Z,155
2018-07-23T13:10:38.096Z,150
2018-07-23T13:11:52.269Z,150
2018-07-23T13:13:06.212Z,155
2018-07-23T13:14:20.393Z,155
2018-07-23T13:15:34.935Z,155
2018-07-23T13:16:49.994Z,155
2018-07-23T13:18:04.276Z,155
2018-07-23T13:19:19.523Z,155
2018-07-23T13:20:34.078Z,155
2018-07-23T13:21:48.257Z,160
2018-07-23T13:23:02.691Z,165
2018-07-23T13:24:17.123Z,165
2018-07-23T13:25:32.142Z,165
2018-07-23T13:26:46.922Z,160
2018-07-23T13:28:01.104Z,160
2018-07-23T13:29:16.068Z,160
2018-07-23T13:30:30.387Z,160
2018-07-23T13:31:45.113Z,160
2018-07-23T13:32:59.092Z,160
2018-07-23T13:34:13.826Z,160
2018-07-23T13:35:28.599Z,165
2018-07-23T13:36:43.068Z,160
2018-07-23T13:37:58.018Z,160
2018-07-23T13:39:12.808Z,160
2018-07-23T13:40:27.574Z,165
2018-07-23T13:41:41.806Z,160
2018-07-23T13:42:56.526Z,160
2018-07-23T13:44:11.515Z,160
2018-07-23T13:45:26.063Z,155
2018-07-23T13:46:40.463Z,155
2018-07-23T13:47:55.214Z,155
2018-07-23T13:49:10.185Z,145
2018-07-23T13:50:24.672Z,145
2018-07-23T13:51:39.504Z,150
2018-07-23T13:52:53.465Z,145
2018-07-23T13:54:08.186Z,145
2018-07-23T13:55:23.139Z,150
2018-07-23T13:56:37.919Z,145
2018-07-23T13:57:52.127Z,145
2018-07-23T13:59:06.834Z,145
2018-07-23T14:00:21.615Z,140
2018-07-23T14:01:36.430Z,145
2018-07-23T14:02:51.151Z,145
2018-07-23T14:04:05.656Z,145
2018-07-23T14:05:20.372Z,150
2018-07-23T14:06:35.206Z,145
2018-07-23T14:07:49.475Z,145
2018-07-23T14:09:03.923Z,140
2018-07-23T14:10:18.225Z,135
2018-07-23T14:11:33.297Z,130
2018-07-23T14:12:48.015Z,125
2018-07-23T14:14:02.547Z,120
2018-07-23T14:15:17.330Z,120
2018-07-23T14:16:32.757Z,120
2018-07-23T14:17:47.490Z,120
2018-07-23T14:19:01.716Z,120
2018-07-23T14:20:15.914Z,125
2018-07-23T14:21:30.898Z,125
2018-07-23T14:22:44.852Z,125
2018-07-23T14:23:59.303Z,130
2018-07-23T14:25:13.848Z,130
2018-07-23T14:26:28.312Z,130
2018-07-23T14:27:43.271Z,130
2018-07-23T14:28:58.010Z,135
2018-07-23T14:30:12.647Z,135
2018-07-23T14:31:26.975Z,135
2018-07-23T14:32:41.672Z,135
2018-07-23T14:33:56.200Z,130
2018-07-23T14:35:11.262Z,135
2018-07-23T14:36:25.501Z,140
2018-07-23T14:37:39.505Z,140
2018-07-23T14:38:53.718Z,145
2018-07-23T14:40:08.486Z,145
2018-07-23T14:41:23.270Z,145
2018-07-23T14:42:37.294Z,140
2018-07-23T14:43:51.368Z,145
2018-07-23T14:45:05.898Z,145
2018-07-23T14:46:19.614Z,145
2018-07-23T14:47:33.868Z,145
2018-07-23T14:48:48.199Z,145
2018-07-23T14:50:02.991Z,145
2018-07-23T14:51:17.225Z,145
2018-07-23T14:52:32.264Z,145
2018-07-23T14:53:46.659Z,145
2018-07-23T14:55:01.371Z,140
2018-07-23T14:56:15.332Z,140
2018-07-23T14:57:29.526Z,140
2018-07-23T14:58:44.537Z,145
2018-07-23T14:59:59.025Z,145
2018-07-23T15:01:13.411Z,145
2018-07-23T15:02:28.149Z,145
2018-07-23T15:03:43.323Z,145
2018-07-23T15:04:58.130Z,145
2018-07-23T15:06:12.902Z,140
2018-07-23T15:07:27.869Z,140
2018-07-23T15:08:42.829Z,140
2018-07-23T15:09:57.076Z,140
2018-07-23T15:11:11.595Z,145
2018-07-23T15:12:26.346Z,145
2018-07-23T15:13:41.219Z,145
2018-07-23T15:14:55.191Z,150
2018-07-23T15:16:10.076Z,150
2018-07-23T15:17:24.611Z,145
2018-07-23T15:18:39.344Z,145
2018-07-23T15:19:53.891Z,145
2018-07-23T15:21:08.640Z,145
2018-07-23T15:22:23.138Z,145
2018-07-23T15:23:37.429Z,145
2018-07-23T15:24:52.575Z,145
2018-07-23T15:26:07.085Z,140
2018-07-23T15:27:21.464Z,140
2018-07-23T15:28:35.920Z,140
2018-07-23T15:29:50.583Z,135
2018-07-23T15:31:05.045Z,135
2018-07-23T15:32:19.024Z,140
2018-07-23T15:33:33.534Z,135
2018-07-23T15:34:48.075Z,135
2018-07-23T15:36:03.093Z,135
2018-07-23T15:37:18.159Z,135
2018-07-23T15:38:32.292Z,135
2018-07-23T15:39:47.375Z,130
2018-07-23T15:41:01.857Z,130
2018-07-23T15:42:16.841Z,130
2018-07-23T15:43:31.325Z,125
2018-07-23T15:44:48.065Z,125
2018-07-23T15:46:03.465Z,130
2018-07-23T15:47:18.625Z,130
2018-07-23T15:48:33.130Z,130
2018-07-23T15:49:47.154Z,130
2018-07-23T15:51:02.153Z,135
2018-07-23T15:52:16.659Z,135
2018-07-23T15:53:30.885Z,135
2018-07-23T15:54:45.610Z,140
2018-07-23T15:56:00.818Z,140
2018-07-23T15:57:15.585Z,135
2018-07-23T15:58:30.580Z,135
2018-07-23T15:59:45.360Z,130
2018-07-23T16:00:58.982Z,130
2018-07-23T16:02:13.476Z,130
2018-07-23T16:03:28.212Z,130
2018-07-23T16:04:43.027Z,125
2018-07-23T16:05:58.994Z,125
2018-07-23T16:07:12.465Z,120
2018-07-23T16:08:27.283Z,115
2018-07-23T16:09:41.792Z,120
2018-07-23T16:10:57.209Z,115
2018-07-23T16:12:12.007Z,115
2018-07-23T16:13:26.975Z,115
2018-07-23T16:14:41.503Z,115
2018-07-23T16:15:56.304Z,110
2018-07-23T16:17:10.313Z,110
2018-07-23T16:18:24.786Z,110
2018-07-23T16:19:39.514Z,110
2018-07-23T16:20:53.494Z,110
2018-07-23T16:22:08.183Z,110
2018-07-23T16:23:22.111Z,110
2018-07-23T16:24:36.082Z,110
2018-07-23T16:25:50.584Z,110
2018-07-23T16:27:05.277Z,110
2018-07-23T16:28:19.577Z,105
2018-07-23T16:29:34.092Z,105
2018-07-23T16:30:48.074Z,105
2018-07-23T16:32:09.733Z,105
2018-07-23T16:33:24.213Z,105
2018-07-23T16:34:38.736Z,105
2018-07-23T16:35:53.514Z,105
2018-07-23T16:37:08.411Z,105
2018-07-23T16:38:23.193Z,100
2018-07-23T16:39:37.154Z,100
2018-07-23T16:40:51.574Z,100
2018-07-23T16:42:06.219Z,100
2018-07-23T16:43:20.450Z,100
2018-07-23T16:44:35.412Z,105
2018-07-23T16:45:49.638Z,110
2018-07-23T16:47:05.077Z,105
2018-07-23T16:48:19.503Z,105
2018-07-23T16:49:34.475Z,105
2018-07-23T16:50:48.937Z,105
2018-07-23T16:52:03.410Z,100
2018-07-23T16:53:18.133Z,100
2018-07-23T16:54:32.372Z,100
2018-07-23T16:55:46.860Z,100
2018-07-23T16:57:01.579Z,100
2018-07-23T16:58:16.052Z,100
2018-07-23T16:59:30.827Z,95
2018-07-23T17:00:44.815Z,95
2018-07-23T17:01:59.344Z,95
2018-07-23T17:03:14.141Z,100
2018-07-23T17:04:28.371Z,95
2018-07-23T17:05:43.166Z,90
2018-07-23T17:06:58.176Z,90
2018-07-23T17:08:13.350Z,90
2018-07-23T17:09:28.062Z,90
2018-07-23T17:10:42.846Z,85
2018-07-23T17:14:43.309Z,85
2018-07-23T17:15:57.550Z,85
2018-07-23T17:17:12.545Z,85
2018-07-23T17:18:27.404Z,85
2018-07-23T17:19:41.951Z,85
2018-07-23T17:21:15.860Z,85
2018-07-23T17:23:08.676Z,80
2018-07-23T17:24:23.662Z,80
2018-07-23T17:25:38.083Z,80
2018-07-23T17:26:52.650Z,80
2018-07-23T17:28:06.866Z,75
2018-07-23T17:29:21.487Z,75
2018-07-23T17:30:35.971Z,75
2018-07-23T17:31:50.246Z,75
2018-07-23T17:33:04.756Z,75
2018-07-23T17:34:19.344Z,75
2018-07-23T17:35:34.373Z,75